Quanah, Texas
Current Conditions -  °F | °C
As of 9:35 AM on Friday 19 Dec 2014 (Local Time) from KF05 Reporting Station
Overcast Overcast  
Wind Chill: 39°   Ceiling: 600
Heat Index: 43°   Visibility: 5mi
Dew Point: 39°   Wind: 7mph
Humidity: 85%   Direction: 60°ENE
Pressure: 30.23"   Gusts: NA
Location:  34.3°N, 99.74°W
Report Text: KF05 191535Z AUTO 06006KT 5SM OVC006 06/04 A3023 RMK AO1 T00600037
Loading
Personal Weather Stations






























Interactive Weather Map New forecast layout! Learn more

10-Day Weather Forecast

Advertisements
Track Severe Weather on mobile